^^
Station Historical Data
Daily Summary for November 8, 2017 Units:  Both    English   Metric
« Previous Day
Next Day »
Daily Weekly Monthly Yearly Custom
  High: Low: Average:
Temperature: TemperatureF °F /  -17.8 °C 58.6 °F /  14.8 °C 75.8 °F /  24.3 °C
Dew Point: DewpointF °F /  -17.8 °C 31.1 °F /  -0.5 °C 39.8 °F /  4.3 °C
Humidity: Humidity% 12% 32%
Wind Speed: WindSpeedMPHmph /  0km/h - 1.4mph /  2.3km/h
Wind Gust: WindSpeedGustMPHmph /  0km/h - -
Wind- - SSW
Pressure: PressureIn in /  0 hPa 29.61 in /  1002.6 hPa -
Precipitation: 0.00 in /  0 mm    
Historical Graphs
 
 
Tabular Data for November 8, 2017
Time Temperature Dew Point Pressure Wind Wind Speed Wind Gust Humidity Rainfall Rate (Hourly) solar Conditions
TemperatureF °F /  -17.8 °C DewpointF °F /  -17.8 °C PressureInin /  0hPa Calm     Humidity% HourlyPrecipInin /  0mm SolarRadiationWatts/m^2 W/m2 Conditions
00:04 67.6 °F /  19.8 °C 46.0 °F /  7.8 °C 29.69in /  1005.3hPa South 0.9mph /  1.4km/h 1.0mph /  1.6km/h 46% 0.00in /  0mm 0.0 W/m2
00:10 67.5 °F /  19.7 °C 46.0 °F /  7.8 °C 29.69in /  1005.3hPa Calm   1.0mph /  1.6km/h 46% 0.00in /  0mm 0.0 W/m2
00:15 67.5 °F /  19.7 °C 46.6 °F /  8.1 °C 29.69in /  1005.3hPa Calm   1.0mph /  1.6km/h 47% 0.00in /  0mm 0.0 W/m2
00:20 67.3 °F /  19.6 °C 46.4 °F /  8 °C 29.69in /  1005.3hPa ENE 0.9mph /  1.4km/h 1.0mph /  1.6km/h 47% 0.00in /  0mm 0.0 W/m2
00:25 67.1 °F /  19.5 °C 46.2 °F /  7.9 °C 29.68in /  1005hPa Calm   3.0mph /  4.8km/h 47% 0.00in /  0mm 0.0 W/m2
00:30 66.9 °F /  19.4 °C 46.6 °F /  8.1 °C 29.68in /  1005hPa Calm     48% 0.00in /  0mm 0.0 W/m2
00:35 66.7 °F /  19.3 °C 46.4 °F /  8 °C 29.68in /  1005hPa Calm     48% 0.00in /  0mm 0.0 W/m2
00:40 66.6 °F /  19.2 °C 46.2 °F /  7.9 °C 29.68in /  1005hPa Calm     48% 0.00in /  0mm 0.0 W/m2
00:45 66.4 °F /  19.1 °C 46.0 °F /  7.8 °C 29.68in /  1005hPa Calm   1.0mph /  1.6km/h 48% 0.00in /  0mm 0.0 W/m2
00:50 66.2 °F /  19 °C 45.9 °F /  7.7 °C 29.68in /  1005hPa Calm     48% 0.00in /  0mm 0.0 W/m2
00:56 66.0 °F /  18.9 °C 46.4 °F /  8 °C 29.68in /  1005hPa Calm     49% 0.00in /  0mm 0.0 W/m2
01:01 65.8 °F /  18.8 °C 46.8 °F /  8.2 °C 29.68in /  1005hPa Calm     50% 0.00in /  0mm 0.0 W/m2
01:06 65.7 °F /  18.7 °C 46.6 °F /  8.1 °C 29.68in /  1005hPa Calm     50% 0.00in /  0mm 0.0 W/m2
01:11 65.7 °F /  18.7 °C 46.6 °F /  8.1 °C 29.68in /  1005hPa Calm     50% 0.00in /  0mm 0.0 W/m2
01:16 65.5 °F /  18.6 °C 46.4 °F /  8 °C 29.68in /  1005hPa Calm     50% 0.00in /  0mm 0.0 W/m2
01:21 65.3 °F /  18.5 °C 46.2 °F /  7.9 °C 29.68in /  1005hPa Calm     50% 0.00in /  0mm 0.0 W/m2
01:26 65.1 °F /  18.4 °C 46.6 °F /  8.1 °C 29.68in /  1005hPa Calm     51% 0.00in /  0mm 0.0 W/m2
01:31 64.9 °F /  18.3 °C 46.9 °F /  8.3 °C 29.68in /  1005hPa Calm     52% 0.00in /  0mm 0.0 W/m2
01:36 64.9 °F /  18.3 °C 46.9 °F /  8.3 °C 29.67in /  1004.6hPa Calm     52% 0.00in /  0mm 0.0 W/m2
01:42 64.8 °F /  18.2 °C 46.8 °F /  8.2 °C 29.67in /  1004.6hPa Calm     52% 0.00in /  0mm 0.0 W/m2
01:47 64.6 °F /  18.1 °C 47.1 °F /  8.4 °C 29.67in /  1004.6hPa Calm     53% 0.00in /  0mm 0.0 W/m2
01:52 64.4 °F /  18 °C 46.9 °F /  8.3 °C 29.67in /  1004.6hPa Calm     53% 0.00in /  0mm 0.0 W/m2
01:57 64.2 °F /  17.9 °C 46.8 °F /  8.2 °C 29.67in /  1004.6hPa Calm     53% 0.00in /  0mm 0.0 W/m2
02:02 64.0 °F /  17.8 °C 46.6 °F /  8.1 °C 29.67in /  1004.6hPa Calm     53% 0.00in /  0mm 0.0 W/m2
02:07 63.9 °F /  17.7 °C 46.9 °F /  8.3 °C 29.67in /  1004.6hPa Calm     54% 0.00in /  0mm 0.0 W/m2
02:12 63.9 °F /  17.7 °C 46.9 °F /  8.3 °C 29.67in /  1004.6hPa Calm     54% 0.00in /  0mm 0.0 W/m2
02:17 63.7 °F /  17.6 °C 46.8 °F /  8.2 °C 29.67in /  1004.6hPa Calm     54% 0.00in /  0mm 0.0 W/m2
02:29 63.3 °F /  17.4 °C 46.9 °F /  8.3 °C 29.67in /  1004.6hPa Calm     55% 0.00in /  0mm 0.0 W/m2
02:34 63.1 °F /  17.3 °C 46.2 °F /  7.9 °C 29.67in /  1004.6hPa Calm   2.0mph /  3.2km/h 54% 0.00in /  0mm 0.0 W/m2
02:39 63.0 °F /  17.2 °C 46.6 °F /  8.1 °C 29.67in /  1004.6hPa Calm   1.0mph /  1.6km/h 55% 0.00in /  0mm 0.0 W/m2
02:44 63.0 °F /  17.2 °C 46.0 °F /  7.8 °C 29.67in /  1004.6hPa Calm     54% 0.00in /  0mm 0.0 W/m2
02:49 63.0 °F /  17.2 °C 46.6 °F /  8.1 °C 29.66in /  1004.3hPa SE 0.9mph /  1.4km/h 1.0mph /  1.6km/h 55% 0.00in /  0mm 0.0 W/m2
02:54 62.8 °F /  17.1 °C 46.4 °F /  8 °C 29.67in /  1004.6hPa Calm   1.0mph /  1.6km/h 55% 0.00in /  0mm 0.0 W/m2
02:59 62.8 °F /  17.1 °C 46.9 °F /  8.3 °C 29.66in /  1004.3hPa Calm   2.0mph /  3.2km/h 56% 0.00in /  0mm 0.0 W/m2
03:04 62.4 °F /  16.9 °C 46.0 °F /  7.8 °C 29.66in /  1004.3hPa Calm     55% 0.00in /  0mm 0.0 W/m2
03:09 62.4 °F /  16.9 °C 46.0 °F /  7.8 °C 29.66in /  1004.3hPa Calm   1.0mph /  1.6km/h 55% 0.00in /  0mm 0.0 W/m2
03:20 62.2 °F /  16.8 °C 45.9 °F /  7.7 °C 29.66in /  1004.3hPa Calm     55% 0.00in /  0mm 0.0 W/m2
03:25 62.1 °F /  16.7 °C 45.7 °F /  7.6 °C 29.66in /  1004.3hPa Calm     55% 0.00in /  0mm 0.0 W/m2
03:30 62.1 °F /  16.7 °C 46.2 °F /  7.9 °C 29.66in /  1004.3hPa Calm   1.0mph /  1.6km/h 56% 0.00in /  0mm 0.0 W/m2
03:35 62.1 °F /  16.7 °C 46.2 °F /  7.9 °C 29.66in /  1004.3hPa Calm     56% 0.00in /  0mm 0.0 W/m2
03:40 61.9 °F /  16.6 °C 46.0 °F /  7.8 °C 29.66in /  1004.3hPa Calm   1.0mph /  1.6km/h 56% 0.00in /  0mm 0.0 W/m2
03:45 61.7 °F /  16.5 °C 45.9 °F /  7.7 °C 29.66in /  1004.3hPa Calm     56% 0.00in /  0mm 0.0 W/m2
03:50 61.5 °F /  16.4 °C 45.7 °F /  7.6 °C 29.66in /  1004.3hPa Calm     56% 0.00in /  0mm 0.0 W/m2
03:55 61.5 °F /  16.4 °C 45.7 °F /  7.6 °C 29.66in /  1004.3hPa Calm     56% 0.00in /  0mm 0.0 W/m2
04:01 61.3 °F /  16.3 °C 46.0 °F /  7.8 °C 29.66in /  1004.3hPa Calm   1.0mph /  1.6km/h 57% 0.00in /  0mm 0.0 W/m2
04:06 61.2 °F /  16.2 °C 45.9 °F /  7.7 °C 29.66in /  1004.3hPa Calm     57% 0.00in /  0mm 0.0 W/m2
04:11 61.2 °F /  16.2 °C 45.3 °F /  7.4 °C 29.66in /  1004.3hPa Calm   2.0mph /  3.2km/h 56% 0.00in /  0mm 0.0 W/m2
04:16 61.0 °F /  16.1 °C 45.1 °F /  7.3 °C 29.66in /  1004.3hPa Calm     56% 0.00in /  0mm 0.0 W/m2
04:21 61.0 °F /  16.1 °C 45.1 °F /  7.3 °C 29.66in /  1004.3hPa Calm     56% 0.00in /  0mm 0.0 W/m2
04:26 61.0 °F /  16.1 °C 45.7 °F /  7.6 °C 29.67in /  1004.6hPa Calm     57% 0.00in /  0mm 0.0 W/m2
04:31 60.8 °F /  16 °C 45.9 °F /  7.7 °C 29.67in /  1004.6hPa Calm     58% 0.00in /  0mm 0.0 W/m2
04:36 60.6 °F /  15.9 °C 45.7 °F /  7.6 °C 29.67in /  1004.6hPa Calm   2.0mph /  3.2km/h 58% 0.00in /  0mm 0.0 W/m2
04:41 60.6 °F /  15.9 °C 45.3 °F /  7.4 °C 29.67in /  1004.6hPa Calm     57% 0.00in /  0mm 0.0 W/m2
04:46 60.4 °F /  15.8 °C 45.7 °F /  7.6 °C 29.67in /  1004.6hPa SE 0.9mph /  1.4km/h 1.0mph /  1.6km/h 58% 0.00in /  0mm 0.0 W/m2
04:52 60.4 °F /  15.8 °C 45.7 °F /  7.6 °C 29.67in /  1004.6hPa Calm   1.0mph /  1.6km/h 58% 0.00in /  0mm 0.0 W/m2
04:57 60.3 °F /  15.7 °C 45.9 °F /  7.7 °C 29.67in /  1004.6hPa Calm     59% 0.00in /  0mm 0.0 W/m2
05:02 60.3 °F /  15.7 °C 46.4 °F /  8 °C 29.67in /  1004.6hPa Calm     60% 0.00in /  0mm 0.0 W/m2
05:07 60.1 °F /  15.6 °C 46.2 °F /  7.9 °C 29.67in /  1004.6hPa Calm     60% 0.00in /  0mm 0.0 W/m2
05:14 59.9 °F /  15.5 °C 46.0 °F /  7.8 °C 29.67in /  1004.6hPa Calm     60% 0.00in /  0mm 0.0 W/m2
05:20 59.7 °F /  15.4 °C 45.9 °F /  7.7 °C 29.67in /  1004.6hPa Calm     60% 0.00in /  0mm 0.0 W/m2
05:23 59.5 °F /  15.3 °C 45.1 °F /  7.3 °C 29.67in /  1004.6hPa Calm     59% 0.00in /  0mm 0.0 W/m2
05:28 59.5 °F /  15.3 °C 45.1 °F /  7.3 °C 29.67in /  1004.6hPa Calm     59% 0.00in /  0mm 0.0 W/m2
05:35 59.5 °F /  15.3 °C 45.1 °F /  7.3 °C 29.67in /  1004.6hPa Calm     59% 0.00in /  0mm 0.0 W/m2
05:40 59.5 °F /  15.3 °C 45.1 °F /  7.3 °C 29.67in /  1004.6hPa Calm     59% 0.00in /  0mm 0.0 W/m2
05:45 59.5 °F /  15.3 °C 45.1 °F /  7.3 °C 29.67in /  1004.6hPa Calm     59% 0.00in /  0mm 0.0 W/m2
05:50 59.5 °F /  15.3 °C 45.1 °F /  7.3 °C 29.67in /  1004.6hPa Calm     59% 0.00in /  0mm 0.0 W/m2
05:55 59.4 °F /  15.2 °C 45.5 °F /  7.5 °C 29.68in /  1005hPa Calm     60% 0.00in /  0mm 0.0 W/m2
06:00 59.4 °F /  15.2 °C 45.9 °F /  7.7 °C 29.68in /  1005hPa Calm     61% 0.00in /  0mm 0.0 W/m2
06:05 59.2 °F /  15.1 °C 46.2 °F /  7.9 °C 29.68in /  1005hPa Calm     62% 0.00in /  0mm 0.0 W/m2
06:10 59.0 °F /  15 °C 46.0 °F /  7.8 °C 29.68in /  1005hPa Calm     62% 0.00in /  0mm 7.0 W/m2
06:15 58.8 °F /  14.9 °C 45.9 °F /  7.7 °C 29.68in /  1005hPa Calm     62% 0.00in /  0mm 9.0 W/m2
06:21 58.6 °F /  14.8 °C 45.3 °F /  7.4 °C 29.68in /  1005hPa Calm     61% 0.00in /  0mm 12.0 W/m2
06:26 58.6 °F /  14.8 °C 45.7 °F /  7.6 °C 29.69in /  1005.3hPa Calm     62% 0.00in /  0mm 14.0 W/m2
06:31 58.8 °F /  14.9 °C 45.3 °F /  7.4 °C 29.69in /  1005.3hPa Calm     61% 0.00in /  0mm 16.0 W/m2
06:36 59.2 °F /  15.1 °C 45.3 °F /  7.4 °C 29.69in /  1005.3hPa Calm     60% 0.00in /  0mm 19.0 W/m2
06:41 59.4 °F /  15.2 °C 45.9 °F /  7.7 °C 29.69in /  1005.3hPa Calm     61% 0.00in /  0mm 21.0 W/m2
06:46 59.5 °F /  15.3 °C 46.6 °F /  8.1 °C 29.69in /  1005.3hPa Calm     62% 0.00in /  0mm 23.0 W/m2
06:51 59.7 °F /  15.4 °C 46.8 °F /  8.2 °C 29.69in /  1005.3hPa Calm     62% 0.00in /  0mm 25.0 W/m2
06:56 60.1 °F /  15.6 °C 47.8 °F /  8.8 °C 29.69in /  1005.3hPa Calm     64% 0.00in /  0mm 26.0 W/m2
07:02 60.3 °F /  15.7 °C 47.7 °F /  8.7 °C 29.70in /  1005.6hPa Calm     63% 0.00in /  0mm 28.0 W/m2
07:07 60.4 °F /  15.8 °C 48.2 °F /  9 °C 29.70in /  1005.6hPa Calm     64% 0.00in /  0mm 30.0 W/m2
07:12 60.6 °F /  15.9 °C 48.4 °F /  9.1 °C 29.70in /  1005.6hPa Calm     64% 0.00in /  0mm 32.0 W/m2
07:17 61.0 °F /  16.1 °C 49.1 °F /  9.5 °C 29.70in /  1005.6hPa Calm     65% 0.00in /  0mm 39.0 W/m2
07:22 61.2 °F /  16.2 °C 48.9 °F /  9.4 °C 29.70in /  1005.6hPa Calm     64% 0.00in /  0mm 37.0 W/m2
07:27 61.5 °F /  16.4 °C 49.3 °F /  9.6 °C 29.70in /  1005.6hPa Calm     64% 0.00in /  0mm 42.0 W/m2
07:32 62.1 °F /  16.7 °C 48.4 °F /  9.1 °C 29.70in /  1005.6hPa Calm     61% 0.00in /  0mm 46.0 W/m2
07:37 63.0 °F /  17.2 °C 49.3 °F /  9.6 °C 29.70in /  1005.6hPa Calm     61% 0.00in /  0mm 81.0 W/m2
07:43 63.9 °F /  17.7 °C 46.4 °F /  8 °C 29.71in /  1006hPa Calm   2.0mph /  3.2km/h 53% 0.00in /  0mm 341.0 W/m2
07:48 65.3 °F /  18.5 °C 46.2 °F /  7.9 °C 29.71in /  1006hPa Calm     50% 0.00in /  0mm 364.0 W/m2
07:53 66.6 °F /  19.2 °C 46.8 °F /  8.2 °C 29.71in /  1006hPa SE 0.9mph /  1.4km/h 1.0mph /  1.6km/h 49% 0.00in /  0mm 383.0 W/m2
07:58 67.8 °F /  19.9 °C 45.7 °F /  7.6 °C 29.70in /  1005.6hPa Calm   2.0mph /  3.2km/h 45% 0.00in /  0mm 404.0 W/m2
08:03 69.6 °F /  20.9 °C 45.5 °F /  7.5 °C 29.71in /  1006hPa North 2.0mph /  3.2km/h 2.0mph /  3.2km/h 42% 0.00in /  0mm 429.0 W/m2
08:08 71.2 °F /  21.8 °C 46.4 °F /  8 °C 29.71in /  1006hPa Calm   1.0mph /  1.6km/h 41% 0.00in /  0mm 448.0 W/m2
08:13 72.7 °F /  22.6 °C 45.7 °F /  7.6 °C 29.71in /  1006hPa Calm   2.0mph /  3.2km/h 38% 0.00in /  0mm 469.0 W/m2
08:18 74.1 °F /  23.4 °C 43.2 °F /  6.2 °C 29.71in /  1006hPa South 0.9mph /  1.4km/h 5.0mph /  8km/h 33% 0.00in /  0mm 490.0 W/m2
08:23 75.9 °F /  24.4 °C 43.2 °F /  6.2 °C 29.70in /  1005.6hPa SE 8.1mph /  13km/h 8.1mph /  13km/h 31% 0.00in /  0mm 513.0 W/m2
08:28 77.2 °F /  25.1 °C 43.3 °F /  6.3 °C 29.70in /  1005.6hPa SE 2.0mph /  3.2km/h 6.0mph /  9.7km/h 30% 0.00in /  0mm 531.0 W/m2
08:34 78.1 °F /  25.6 °C 42.3 °F /  5.7 °C 29.71in /  1006hPa SE 4.9mph /  7.9km/h 8.0mph /  12.9km/h 28% 0.00in /  0mm 550.0 W/m2
08:39 78.6 °F /  25.9 °C 42.8 °F /  6 °C 29.71in /  1006hPa SSE 2.0mph /  3.2km/h 7.0mph /  11.3km/h 28% 0.00in /  0mm 570.0 W/m2
08:44 79.2 °F /  26.2 °C 43.2 °F /  6.2 °C 29.71in /  1006hPa SE 4.9mph /  7.9km/h 7.0mph /  11.3km/h 28% 0.00in /  0mm 585.0 W/m2
08:49 79.9 °F /  26.6 °C 43.0 °F /  6.1 °C 29.71in /  1006hPa SSE 6.9mph /  11.1km/h 7.0mph /  11.3km/h 27% 0.00in /  0mm 608.0 W/m2
08:54 80.4 °F /  26.9 °C 43.3 °F /  6.3 °C 29.71in /  1006hPa East 2.9mph /  4.7km/h 5.0mph /  8km/h 27% 0.00in /  0mm 628.0 W/m2
08:59 81.0 °F /  27.2 °C 42.8 °F /  6 °C 29.71in /  1006hPa ESE 2.0mph /  3.2km/h 4.0mph /  6.4km/h 26% 0.00in /  0mm 638.0 W/m2
09:04 81.7 °F /  27.6 °C 42.4 °F /  5.8 °C 29.71in /  1006hPa NE 0.9mph /  1.4km/h 2.0mph /  3.2km/h 25% 0.00in /  0mm 657.0 W/m2
09:09 82.4 °F /  28 °C 41.9 °F /  5.5 °C 29.71in /  1006hPa Calm   4.0mph /  6.4km/h 24% 0.00in /  0mm 680.0 W/m2
09:14 82.9 °F /  28.3 °C 42.4 °F /  5.8 °C 29.71in /  1006hPa NE 2.0mph /  3.2km/h 5.0mph /  8km/h 24% 0.00in /  0mm 698.0 W/m2
09:19 83.5 °F /  28.6 °C 41.7 °F /  5.4 °C 29.71in /  1006hPa ENE 6.9mph /  11.1km/h 7.0mph /  11.3km/h 23% 0.00in /  0mm 715.0 W/m2
09:25 83.8 °F /  28.8 °C 41.0 °F /  5 °C 29.71in /  1006hPa Calm   6.0mph /  9.7km/h 22% 0.00in /  0mm 731.0 W/m2
09:31 83.8 °F /  28.8 °C 41.0 °F /  5 °C 29.70in /  1005.6hPa ESE 4.9mph /  7.9km/h 5.0mph /  8km/h 22% 0.00in /  0mm 749.0 W/m2
09:36 83.8 °F /  28.8 °C 39.7 °F /  4.3 °C 29.70in /  1005.6hPa SE 2.9mph /  4.7km/h 5.0mph /  8km/h 21% 0.00in /  0mm 768.0 W/m2
09:42 84.2 °F /  29 °C 40.1 °F /  4.5 °C 29.71in /  1006hPa Calm   3.0mph /  4.8km/h 21% 0.00in /  0mm 786.0 W/m2
09:47 84.7 °F /  29.3 °C 40.5 °F /  4.7 °C 29.71in /  1006hPa ESE 2.0mph /  3.2km/h 4.0mph /  6.4km/h 21% 0.00in /  0mm 798.0 W/m2
09:52 85.1 °F /  29.5 °C 39.6 °F /  4.2 °C 29.71in /  1006hPa SSE 4.9mph /  7.9km/h 6.0mph /  9.7km/h 20% 0.00in /  0mm 810.0 W/m2
09:58 85.3 °F /  29.6 °C 38.3 °F /  3.5 °C 29.71in /  1006hPa SSE 2.0mph /  3.2km/h 2.0mph /  3.2km/h 19% 0.00in /  0mm 826.0 W/m2
10:04 85.3 °F /  29.6 °C 37.0 °F /  2.8 °C 29.71in /  1006hPa WSW 4.0mph /  6.4km/h 4.0mph /  6.4km/h 18% 0.00in /  0mm 842.0 W/m2
10:09 85.3 °F /  29.6 °C 35.6 °F /  2 °C 29.71in /  1006hPa SSE 0.9mph /  1.4km/h 3.0mph /  4.8km/h 17% 0.00in /  0mm 867.0 W/m2
10:14 85.6 °F /  29.8 °C 38.7 °F /  3.7 °C 29.71in /  1006hPa East 4.9mph /  7.9km/h 11.0mph /  17.7km/h 19% 0.00in /  0mm 886.0 W/m2
10:19 86.2 °F /  30.1 °C 36.3 °F /  2.4 °C 29.71in /  1006hPa East 2.0mph /  3.2km/h 3.0mph /  4.8km/h 17% 0.00in /  0mm 898.0 W/m2
10:25 86.7 °F /  30.4 °C 36.7 °F /  2.6 °C 29.71in /  1006hPa SSE 6.0mph /  9.7km/h 10.0mph /  16.1km/h 17% 0.00in /  0mm 911.0 W/m2
10:30 87.1 °F /  30.6 °C 38.5 °F /  3.6 °C 29.71in /  1006hPa Calm   5.0mph /  8km/h 18% 0.00in /  0mm 919.0 W/m2
10:35 87.1 °F /  30.6 °C 38.5 °F /  3.6 °C 29.71in /  1006hPa SSW 2.9mph /  4.7km/h 5.0mph /  8km/h 18% 0.00in /  0mm 930.0 W/m2
10:40 86.7 °F /  30.4 °C 38.1 °F /  3.4 °C 29.71in /  1006hPa SSW 2.0mph /  3.2km/h 7.0mph /  11.3km/h 18% 0.00in /  0mm 939.0 W/m2
10:45 86.5 °F /  30.3 °C 37.9 °F /  3.3 °C 29.71in /  1006hPa South 2.0mph /  3.2km/h 4.0mph /  6.4km/h 18% 0.00in /  0mm 947.0 W/m2
10:50 86.5 °F /  30.3 °C 37.9 °F /  3.3 °C 29.71in /  1006hPa SSW 0.9mph /  1.4km/h 11.0mph /  17.7km/h 18% 0.00in /  0mm 976.0 W/m2
10:55 86.7 °F /  30.4 °C 38.1 °F /  3.4 °C 29.70in /  1005.6hPa SE 0.9mph /  1.4km/h 2.0mph /  3.2km/h 18% 0.00in /  0mm 979.0 W/m2
11:00 86.7 °F /  30.4 °C 36.7 °F /  2.6 °C 29.70in /  1005.6hPa ENE 2.0mph /  3.2km/h 7.0mph /  11.3km/h 17% 0.00in /  0mm 988.0 W/m2
11:05 86.7 °F /  30.4 °C 38.1 °F /  3.4 °C 29.70in /  1005.6hPa NW 4.0mph /  6.4km/h 5.0mph /  8km/h 18% 0.00in /  0mm 1009.0 W/m2
11:10 87.3 °F /  30.7 °C 38.7 °F /  3.7 °C 29.70in /  1005.6hPa SSE 2.9mph /  4.7km/h 6.0mph /  9.7km/h 18% 0.00in /  0mm 1042.0 W/m2
11:16 87.4 °F /  30.8 °C 37.2 °F /  2.9 °C 29.70in /  1005.6hPa Calm   3.0mph /  4.8km/h 17% 0.00in /  0mm 244.0 W/m2
11:22 87.4 °F /  30.8 °C 37.2 °F /  2.9 °C 29.70in /  1005.6hPa Calm   2.0mph /  3.2km/h 17% 0.00in /  0mm 408.0 W/m2
11:27 87.8 °F /  31 °C 37.6 °F /  3.1 °C 29.70in /  1005.6hPa South 4.9mph /  7.9km/h 6.0mph /  9.7km/h 17% 0.00in /  0mm 297.0 W/m2
11:33 88.0 °F /  31.1 °C 36.1 °F /  2.3 °C 29.70in /  1005.6hPa SE 4.0mph /  6.4km/h 10.0mph /  16.1km/h 16% 0.00in /  0mm 1234.0 W/m2
11:38 88.3 °F /  31.3 °C 36.5 °F /  2.5 °C 29.70in /  1005.6hPa South 2.0mph /  3.2km/h 9.0mph /  14.5km/h 16% 0.00in /  0mm 1239.0 W/m2
11:43 88.2 °F /  31.2 °C 36.3 °F /  2.4 °C 29.70in /  1005.6hPa Calm   1.0mph /  1.6km/h 16% 0.00in /  0mm 278.0 W/m2
11:49 87.4 °F /  30.8 °C 35.8 °F /  2.1 °C 29.69in /  1005.3hPa SW 4.0mph /  6.4km/h 5.0mph /  8km/h 16% 0.00in /  0mm 246.0 W/m2
11:54 86.7 °F /  30.4 °C 35.2 °F /  1.8 °C 29.69in /  1005.3hPa SW 2.9mph /  4.7km/h 6.0mph /  9.7km/h 16% 0.00in /  0mm 265.0 W/m2
11:59 86.2 °F /  30.1 °C 34.7 °F /  1.5 °C 29.70in /  1005.6hPa SSE 9.0mph /  14.5km/h 9.0mph /  14.5km/h 16% 0.00in /  0mm 304.0 W/m2
12:04 86.4 °F /  30.2 °C 36.3 °F /  2.4 °C 29.69in /  1005.3hPa Calm   3.0mph /  4.8km/h 17% 0.00in /  0mm 1273.0 W/m2
12:09 87.3 °F /  30.7 °C 35.6 °F /  2 °C 29.69in /  1005.3hPa SE 2.9mph /  4.7km/h 8.0mph /  12.9km/h 16% 0.00in /  0mm 364.0 W/m2
12:15 87.3 °F /  30.7 °C 35.6 °F /  2 °C 29.69in /  1005.3hPa SSW 6.9mph /  11.1km/h 7.0mph /  11.3km/h 16% 0.00in /  0mm 376.0 W/m2
12:20 86.9 °F /  30.5 °C 36.9 °F /  2.7 °C 29.69in /  1005.3hPa Calm   5.0mph /  8km/h 17% 0.00in /  0mm 411.0 W/m2
12:25 86.9 °F /  30.5 °C 35.2 °F /  1.8 °C 29.69in /  1005.3hPa WSW 2.9mph /  4.7km/h 4.0mph /  6.4km/h 16% 0.00in /  0mm 434.0 W/m2
12:31 86.5 °F /  30.3 °C 35.1 °F /  1.7 °C 29.69in /  1005.3hPa East 0.9mph /  1.4km/h 5.0mph /  8km/h 16% 0.00in /  0mm 388.0 W/m2
12:36 87.1 °F /  30.6 °C 35.4 °F /  1.9 °C 29.68in /  1005hPa SE 0.9mph /  1.4km/h 5.0mph /  8km/h 16% 0.00in /  0mm 1352.0 W/m2
12:41 88.0 °F /  31.1 °C 36.1 °F /  2.3 °C 29.68in /  1005hPa East 2.9mph /  4.7km/h 6.0mph /  9.7km/h 16% 0.00in /  0mm 1352.0 W/m2
12:47 88.9 °F /  31.6 °C 36.9 °F /  2.7 °C 29.68in /  1005hPa West 4.9mph /  7.9km/h 5.0mph /  8km/h 16% 0.00in /  0mm 462.0 W/m2
12:52 88.5 °F /  31.4 °C 35.1 °F /  1.7 °C 29.68in /  1005hPa Calm   2.0mph /  3.2km/h 15% 0.00in /  0mm 380.0 W/m2
12:57 88.3 °F /  31.3 °C 34.9 °F /  1.6 °C 29.68in /  1005hPa WNW 2.9mph /  4.7km/h 8.0mph /  12.9km/h 15% 0.00in /  0mm 411.0 W/m2
13:03 87.8 °F /  31 °C 36.0 °F /  2.2 °C 29.68in /  1005hPa SW 2.9mph /  4.7km/h 5.0mph /  8km/h 16% 0.00in /  0mm 541.0 W/m2
13:08 88.0 °F /  31.1 °C 36.1 °F /  2.3 °C 29.67in /  1004.6hPa SSE 2.9mph /  4.7km/h 3.0mph /  4.8km/h 16% 0.00in /  0mm 431.0 W/m2
13:13 88.0 °F /  31.1 °C 37.8 °F /  3.2 °C 29.68in /  1005hPa WSW 4.9mph /  7.9km/h 6.0mph /  9.7km/h 17% 0.00in /  0mm 1397.0 W/m2
13:19 87.8 °F /  31 °C 36.0 °F /  2.2 °C 29.68in /  1005hPa South 2.9mph /  4.7km/h 7.0mph /  11.3km/h 16% 0.00in /  0mm 369.0 W/m2
13:24 87.3 °F /  30.7 °C 35.6 °F /  2 °C 29.67in /  1004.6hPa Calm   2.0mph /  3.2km/h 16% 0.00in /  0mm 408.0 W/m2
13:29 87.1 °F /  30.6 °C 35.4 °F /  1.9 °C 29.67in /  1004.6hPa Calm   1.0mph /  1.6km/h 16% 0.00in /  0mm 415.0 W/m2
13:35 87.3 °F /  30.7 °C 34.0 °F /  1.1 °C 29.67in /  1004.6hPa ESE 0.9mph /  1.4km/h 6.0mph /  9.7km/h 15% 0.00in /  0mm 436.0 W/m2
13:40 87.6 °F /  30.9 °C 34.3 °F /  1.3 °C 29.67in /  1004.6hPa ESE 2.9mph /  4.7km/h 4.0mph /  6.4km/h 15% 0.00in /  0mm 531.0 W/m2
13:46 88.3 °F /  31.3 °C 34.9 °F /  1.6 °C 29.67in /  1004.6hPa SSW 6.0mph /  9.7km/h 7.0mph /  11.3km/h 15% 0.00in /  0mm 1397.0 W/m2
13:52 89.6 °F /  32 °C 35.8 °F /  2.1 °C 29.66in /  1004.3hPa SSE 4.0mph /  6.4km/h 5.0mph /  8km/h 15% 0.00in /  0mm 1130.0 W/m2
13:57 90.3 °F /  32.4 °C 34.7 °F /  1.5 °C 29.66in /  1004.3hPa NNW 0.9mph /  1.4km/h 7.0mph /  11.3km/h 14% 0.00in /  0mm 1188.0 W/m2
14:02 91.0 °F /  32.8 °C 33.4 °F /  0.8 °C 29.66in /  1004.3hPa Calm   5.0mph /  8km/h 13% 0.00in /  0mm 1201.0 W/m2
14:08 91.2 °F /  32.9 °C 33.4 °F /  0.8 °C 29.66in /  1004.3hPa West 2.0mph /  3.2km/h 3.0mph /  4.8km/h 13% 0.00in /  0mm 353.0 W/m2
14:13 90.1 °F /  32.3 °C 34.5 °F /  1.4 °C 29.66in /  1004.3hPa Calm   6.0mph /  9.7km/h 14% 0.00in /  0mm 348.0 W/m2
14:18 89.4 °F /  31.9 °C 34.0 °F /  1.1 °C 29.66in /  1004.3hPa WSW 2.0mph /  3.2km/h 5.0mph /  8km/h 14% 0.00in /  0mm 585.0 W/m2
14:29 89.4 °F /  31.9 °C 34.0 °F /  1.1 °C 29.65in /  1003.9hPa South 2.9mph /  4.7km/h 7.0mph /  11.3km/h 14% 0.00in /  0mm 1241.0 W/m2
14:34 90.7 °F /  32.6 °C 33.1 °F /  0.6 °C 29.65in /  1003.9hPa SE 2.9mph /  4.7km/h 5.0mph /  8km/h 13% 0.00in /  0mm 1178.0 W/m2
14:39 91.4 °F /  33 °C 33.6 °F /  0.9 °C 29.65in /  1003.9hPa SSW 4.9mph /  7.9km/h 8.0mph /  12.9km/h 13% 0.00in /  0mm 946.0 W/m2
14:45 91.6 °F /  33.1 °C 31.8 °F /  -0.1 °C 29.65in /  1003.9hPa West 2.9mph /  4.7km/h 5.0mph /  8km/h 12% 0.00in /  0mm 766.0 W/m2
14:50 90.1 °F /  32.3 °C 32.7 °F /  0.4 °C 29.64in /  1003.6hPa Calm   5.0mph /  8km/h 13% 0.00in /  0mm 432.0 W/m2
15:01 89.4 °F /  31.9 °C 32.2 °F /  0.1 °C 29.64in /  1003.6hPa Calm   6.0mph /  9.7km/h 13% 0.00in /  0mm 578.0 W/m2
15:06 90.0 °F /  32.2 °C 34.3 °F /  1.3 °C 29.63in /  1003.3hPa WSW 2.0mph /  3.2km/h 7.0mph /  11.3km/h 14% 0.00in /  0mm 858.0 W/m2
15:11 90.1 °F /  32.3 °C 34.5 °F /  1.4 °C 29.64in /  1003.6hPa SW 4.9mph /  7.9km/h 13.0mph /  20.9km/h 14% 0.00in /  0mm 450.0 W/m2
15:17 90.0 °F /  32.2 °C 32.5 °F /  0.3 °C 29.63in /  1003.3hPa WSW 4.9mph /  7.9km/h 8.0mph /  12.9km/h 13% 0.00in /  0mm 294.0 W/m2
15:23 89.4 °F /  31.9 °C 32.2 °F /  0.1 °C 29.63in /  1003.3hPa SW 2.0mph /  3.2km/h 5.0mph /  8km/h 13% 0.00in /  0mm 236.0 W/m2
15:28 88.5 °F /  31.4 °C 33.3 °F /  0.7 °C 29.63in /  1003.3hPa SSW 0.9mph /  1.4km/h 5.0mph /  8km/h 14% 0.00in /  0mm 232.0 W/m2
15:34 88.2 °F /  31.2 °C 32.9 °F /  0.5 °C 29.62in /  1002.9hPa SW 2.0mph /  3.2km/h 5.0mph /  8km/h 14% 0.00in /  0mm 230.0 W/m2
15:40 88.0 °F /  31.1 °C 34.5 °F /  1.4 °C 29.62in /  1002.9hPa SW 0.9mph /  1.4km/h 2.0mph /  3.2km/h 15% 0.00in /  0mm 271.0 W/m2
15:44 88.0 °F /  31.1 °C 34.5 °F /  1.4 °C 29.62in /  1002.9hPa WSW 2.0mph /  3.2km/h 2.0mph /  3.2km/h 15% 0.00in /  0mm 417.0 W/m2
15:50 88.3 °F /  31.3 °C 34.9 °F /  1.6 °C 29.62in /  1002.9hPa Calm   3.0mph /  4.8km/h 15% 0.00in /  0mm 329.0 W/m2
15:55 88.9 °F /  31.6 °C 33.6 °F /  0.9 °C 29.61in /  1002.6hPa West 0.9mph /  1.4km/h 2.0mph /  3.2km/h 14% 0.00in /  0mm 262.0 W/m2
16:01 88.9 °F /  31.6 °C 33.6 °F /  0.9 °C 29.62in /  1002.9hPa Calm   3.0mph /  4.8km/h 14% 0.00in /  0mm 244.0 W/m2
16:06 88.9 °F /  31.6 °C 31.6 °F /  -0.2 °C 29.62in /  1002.9hPa WSW 2.0mph /  3.2km/h 8.0mph /  12.9km/h 13% 0.00in /  0mm 246.0 W/m2
16:12 88.3 °F /  31.3 °C 31.3 °F /  -0.4 °C 29.62in /  1002.9hPa WSW 2.9mph /  4.7km/h 9.0mph /  14.5km/h 13% 0.00in /  0mm 380.0 W/m2
16:19 88.2 °F /  31.2 °C 31.1 °F /  -0.5 °C 29.62in /  1002.9hPa South 0.9mph /  1.4km/h 6.0mph /  9.7km/h 13% 0.00in /  0mm 323.0 W/m2
16:24 88.5 °F /  31.4 °C 33.3 °F /  0.7 °C 29.61in /  1002.6hPa Calm   4.0mph /  6.4km/h 14% 0.00in /  0mm 230.0 W/m2
16:30 88.5 °F /  31.4 °C 31.5 °F /  -0.3 °C 29.61in /  1002.6hPa West 0.9mph /  1.4km/h 4.0mph /  6.4km/h 13% 0.00in /  0mm 204.0 W/m2
16:35 88.3 °F /  31.3 °C 31.3 °F /  -0.4 °C 29.61in /  1002.6hPa WSW 4.9mph /  7.9km/h 6.0mph /  9.7km/h 13% 0.00in /  0mm 178.0 W/m2
16:41 88.0 °F /  31.1 °C 32.9 °F /  0.5 °C 29.61in /  1002.6hPa WSW 4.0mph /  6.4km/h 11.0mph /  17.7km/h 14% 0.00in /  0mm 151.0 W/m2
16:47 87.3 °F /  30.7 °C 34.0 °F /  1.1 °C 29.61in /  1002.6hPa WSW 2.0mph /  3.2km/h 7.0mph /  11.3km/h 15% 0.00in /  0mm 125.0 W/m2
16:52 87.1 °F /  30.6 °C 33.8 °F /  1 °C 29.61in /  1002.6hPa WNW 2.9mph /  4.7km/h 7.0mph /  11.3km/h 15% 0.00in /  0mm 109.0 W/m2
16:58 86.7 °F /  30.4 °C 33.6 °F /  0.9 °C 29.61in /  1002.6hPa WSW 0.9mph /  1.4km/h 4.0mph /  6.4km/h 15% 0.00in /  0mm 97.0 W/m2
17:03 86.4 °F /  30.2 °C 33.3 °F /  0.7 °C 29.61in /  1002.6hPa SSW 2.9mph /  4.7km/h 9.0mph /  14.5km/h 15% 0.00in /  0mm 97.0 W/m2
17:09 86.2 °F /  30.1 °C 33.1 °F /  0.6 °C 29.61in /  1002.6hPa SW 4.0mph /  6.4km/h 10.0mph /  16.1km/h 15% 0.00in /  0mm 98.0 W/m2
17:14 86.0 °F /  30 °C 32.9 °F /  0.5 °C 29.61in /  1002.6hPa WSW 0.9mph /  1.4km/h 9.0mph /  14.5km/h 15% 0.00in /  0mm 91.0 W/m2
17:19 85.6 °F /  29.8 °C 32.7 °F /  0.4 °C 29.61in /  1002.6hPa WSW 2.9mph /  4.7km/h 7.0mph /  11.3km/h 15% 0.00in /  0mm 86.0 W/m2
17:24 85.6 °F /  29.8 °C 32.7 °F /  0.4 °C 29.61in /  1002.6hPa WSW 0.9mph /  1.4km/h 6.0mph /  9.7km/h 15% 0.00in /  0mm 84.0 W/m2
17:29 85.5 °F /  29.7 °C 32.5 °F /  0.3 °C 29.61in /  1002.6hPa West 6.0mph /  9.7km/h 7.0mph /  11.3km/h 15% 0.00in /  0mm 77.0 W/m2
17:34 85.5 °F /  29.7 °C 34.2 °F /  1.2 °C 29.61in /  1002.6hPa West 2.0mph /  3.2km/h 10.0mph /  16.1km/h 16% 0.00in /  0mm 76.0 W/m2
17:40 85.3 °F /  29.6 °C 35.6 °F /  2 °C 29.61in /  1002.6hPa WNW 2.9mph /  4.7km/h 9.0mph /  14.5km/h 17% 0.00in /  0mm 77.0 W/m2
17:45 85.1 °F /  29.5 °C 33.8 °F /  1 °C 29.61in /  1002.6hPa WSW 4.0mph /  6.4km/h 5.0mph /  8km/h 16% 0.00in /  0mm 72.0 W/m2
17:51 84.9 °F /  29.4 °C 35.2 °F /  1.8 °C 29.62in /  1002.9hPa WSW 2.9mph /  4.7km/h 9.0mph /  14.5km/h 17% 0.00in /  0mm 72.0 W/m2
17:58 84.6 °F /  29.2 °C 33.4 °F /  0.8 °C 29.62in /  1002.9hPa WSW 8.1mph /  13km/h 12.0mph /  19.3km/h 16% 0.00in /  0mm 65.0 W/m2
18:03 84.4 °F /  29.1 °C 33.3 °F /  0.7 °C 29.62in /  1002.9hPa WSW 2.0mph /  3.2km/h 10.0mph /  16.1km/h 16% 0.00in /  0mm 53.0 W/m2
18:08 84.0 °F /  28.9 °C 34.5 °F /  1.4 °C 29.62in /  1002.9hPa West 2.9mph /  4.7km/h 10.0mph /  16.1km/h 17% 0.00in /  0mm 44.0 W/m2
18:13 83.7 °F /  28.7 °C 34.2 °F /  1.2 °C 29.62in /  1002.9hPa WSW 0.9mph /  1.4km/h 8.0mph /  12.9km/h 17% 0.00in /  0mm 37.0 W/m2
18:18 83.5 °F /  28.6 °C 34.2 °F /  1.2 °C 29.62in /  1002.9hPa WNW 2.0mph /  3.2km/h 8.0mph /  12.9km/h 17% 0.00in /  0mm 35.0 W/m2
18:23 83.1 °F /  28.4 °C 33.8 °F /  1 °C 29.63in /  1003.3hPa West 0.9mph /  1.4km/h 7.0mph /  11.3km/h 17% 0.00in /  0mm 37.0 W/m2
18:28 83.1 °F /  28.4 °C 32.4 °F /  0.2 °C 29.63in /  1003.3hPa West 4.9mph /  7.9km/h 8.0mph /  12.9km/h 16% 0.00in /  0mm 32.0 W/m2
18:34 83.1 °F /  28.4 °C 32.4 °F /  0.2 °C 29.63in /  1003.3hPa WSW 2.9mph /  4.7km/h 9.0mph /  14.5km/h 16% 0.00in /  0mm 26.0 W/m2
18:39 82.9 °F /  28.3 °C 32.2 °F /  0.1 °C 29.63in /  1003.3hPa SW 2.0mph /  3.2km/h 9.0mph /  14.5km/h 16% 0.00in /  0mm 26.0 W/m2
18:49 83.1 °F /  28.4 °C 32.4 °F /  0.2 °C 29.64in /  1003.6hPa West 2.9mph /  4.7km/h 7.0mph /  11.3km/h 16% 0.00in /  0mm 21.0 W/m2
18:55 82.9 °F /  28.3 °C 32.2 °F /  0.1 °C 29.64in /  1003.6hPa Calm   5.0mph /  8km/h 16% 0.00in /  0mm 16.0 W/m2
19:00 82.9 °F /  28.3 °C 32.2 °F /  0.1 °C 29.64in /  1003.6hPa WSW 2.9mph /  4.7km/h 7.0mph /  11.3km/h 16% 0.00in /  0mm 12.0 W/m2
19:06 82.8 °F /  28.2 °C 33.4 °F /  0.8 °C 29.64in /  1003.6hPa West 6.0mph /  9.7km/h 8.0mph /  12.9km/h 17% 0.00in /  0mm 9.0 W/m2
19:11 82.6 °F /  28.1 °C 33.4 °F /  0.8 °C 29.65in /  1003.9hPa SW 2.0mph /  3.2km/h 9.0mph /  14.5km/h 17% 0.00in /  0mm 0.0 W/m2
19:17 82.2 °F /  27.9 °C 34.5 °F /  1.4 °C 29.65in /  1003.9hPa WSW 10.1mph /  16.3km/h 10.1mph /  16.3km/h 18% 0.00in /  0mm 0.0 W/m2
19:22 82.0 °F /  27.8 °C 35.8 °F /  2.1 °C 29.65in /  1003.9hPa South 0.9mph /  1.4km/h 6.0mph /  9.7km/h 19% 0.00in /  0mm 0.0 W/m2
19:27 81.9 °F /  27.7 °C 35.6 °F /  2 °C 29.65in /  1003.9hPa WSW 0.9mph /  1.4km/h 5.0mph /  8km/h 19% 0.00in /  0mm 0.0 W/m2
19:33 81.7 °F /  27.6 °C 36.7 °F /  2.6 °C 29.65in /  1003.9hPa WSW 2.0mph /  3.2km/h 8.0mph /  12.9km/h 20% 0.00in /  0mm 0.0 W/m2
19:38 81.3 °F /  27.4 °C 37.6 °F /  3.1 °C 29.66in /  1004.3hPa SSW 4.0mph /  6.4km/h 8.0mph /  12.9km/h 21% 0.00in /  0mm 0.0 W/m2
19:43 81.0 °F /  27.2 °C 38.5 °F /  3.6 °C 29.66in /  1004.3hPa SW 0.9mph /  1.4km/h 6.0mph /  9.7km/h 22% 0.00in /  0mm 0.0 W/m2
19:55 80.2 °F /  26.8 °C 40.1 °F /  4.5 °C 29.67in /  1004.6hPa WSW 4.9mph /  7.9km/h 6.0mph /  9.7km/h 24% 0.00in /  0mm 0.0 W/m2
20:00 79.9 °F /  26.6 °C 41.0 °F /  5 °C 29.67in /  1004.6hPa SW 2.0mph /  3.2km/h 9.0mph /  14.5km/h 25% 0.00in /  0mm 0.0 W/m2
20:05 79.5 °F /  26.4 °C 40.6 °F /  4.8 °C 29.67in /  1004.6hPa SW 4.9mph /  7.9km/h 6.0mph /  9.7km/h 25% 0.00in /  0mm 0.0 W/m2
20:10 79.2 °F /  26.2 °C 41.4 °F /  5.2 °C 29.67in /  1004.6hPa SW 0.9mph /  1.4km/h 5.0mph /  8km/h 26% 0.00in /  0mm 0.0 W/m2
20:16 79.0 °F /  26.1 °C 41.2 °F /  5.1 °C 29.67in /  1004.6hPa WSW 2.0mph /  3.2km/h 6.0mph /  9.7km/h 26% 0.00in /  0mm 0.0 W/m2
20:22 78.4 °F /  25.8 °C 40.6 °F /  4.8 °C 29.67in /  1004.6hPa Calm   4.0mph /  6.4km/h 26% 0.00in /  0mm 0.0 W/m2
20:27 78.3 °F /  25.7 °C 41.5 °F /  5.3 °C 29.67in /  1004.6hPa SSW 2.0mph /  3.2km/h 7.0mph /  11.3km/h 27% 0.00in /  0mm 0.0 W/m2
20:32 78.1 °F /  25.6 °C 41.4 °F /  5.2 °C 29.68in /  1005hPa SW 0.9mph /  1.4km/h 7.0mph /  11.3km/h 27% 0.00in /  0mm 0.0 W/m2
20:37 77.7 °F /  25.4 °C 41.0 °F /  5 °C 29.68in /  1005hPa WSW 0.9mph /  1.4km/h 4.0mph /  6.4km/h 27% 0.00in /  0mm 0.0 W/m2
20:42 77.5 °F /  25.3 °C 41.9 °F /  5.5 °C 29.68in /  1005hPa Calm   1.0mph /  1.6km/h 28% 0.00in /  0mm 0.0 W/m2
20:47 77.4 °F /  25.2 °C 41.7 °F /  5.4 °C 29.68in /  1005hPa Calm   1.0mph /  1.6km/h 28% 0.00in /  0mm 0.0 W/m2
20:52 77.2 °F /  25.1 °C 41.5 °F /  5.3 °C 29.68in /  1005hPa Calm   2.0mph /  3.2km/h 28% 0.00in /  0mm 0.0 W/m2
20:57 76.8 °F /  24.9 °C 41.2 °F /  5.1 °C 29.68in /  1005hPa WSW 2.9mph /  4.7km/h 3.0mph /  4.8km/h 28% 0.00in /  0mm 0.0 W/m2
21:02 76.6 °F /  24.8 °C 42.1 °F /  5.6 °C 29.68in /  1005hPa Calm   1.0mph /  1.6km/h 29% 0.00in /  0mm 0.0 W/m2
21:08 76.5 °F /  24.7 °C 41.9 °F /  5.5 °C 29.69in /  1005.3hPa Calm   1.0mph /  1.6km/h 29% 0.00in /  0mm 0.0 W/m2
21:13 76.3 °F /  24.6 °C 41.7 °F /  5.4 °C 29.69in /  1005.3hPa Calm   1.0mph /  1.6km/h 29% 0.00in /  0mm 0.0 W/m2
21:18 75.9 °F /  24.4 °C 41.4 °F /  5.2 °C 29.69in /  1005.3hPa Calm   3.0mph /  4.8km/h 29% 0.00in /  0mm 0.0 W/m2
21:23 75.7 °F /  24.3 °C 41.2 °F /  5.1 °C 29.69in /  1005.3hPa Calm     29% 0.00in /  0mm 0.0 W/m2
21:28 75.6 °F /  24.2 °C 41.9 °F /  5.5 °C 29.69in /  1005.3hPa Calm     30% 0.00in /  0mm 0.0 W/m2
21:33 75.4 °F /  24.1 °C 41.7 °F /  5.4 °C 29.69in /  1005.3hPa Calm   1.0mph /  1.6km/h 30% 0.00in /  0mm 0.0 W/m2
21:38 75.0 °F /  23.9 °C 40.6 °F /  4.8 °C 29.70in /  1005.6hPa Calm   1.0mph /  1.6km/h 29% 0.00in /  0mm 0.0 W/m2
21:43 74.7 °F /  23.7 °C 38.5 °F /  3.6 °C 29.70in /  1005.6hPa South 2.0mph /  3.2km/h 3.0mph /  4.8km/h 27% 0.00in /  0mm 0.0 W/m2
21:48 74.8 °F /  23.8 °C 37.6 °F /  3.1 °C 29.70in /  1005.6hPa Calm   6.0mph /  9.7km/h 26% 0.00in /  0mm 0.0 W/m2
21:54 74.8 °F /  23.8 °C 37.6 °F /  3.1 °C 29.70in /  1005.6hPa Calm   5.0mph /  8km/h 26% 0.00in /  0mm 0.0 W/m2
21:59 75.0 °F /  23.9 °C 37.8 °F /  3.2 °C 29.70in /  1005.6hPa Calm   3.0mph /  4.8km/h 26% 0.00in /  0mm 0.0 W/m2
22:04 75.4 °F /  24.1 °C 38.1 °F /  3.4 °C 29.70in /  1005.6hPa Calm   3.0mph /  4.8km/h 26% 0.00in /  0mm 0.0 W/m2
22:09 75.4 °F /  24.1 °C 38.1 °F /  3.4 °C 29.70in /  1005.6hPa Calm   1.0mph /  1.6km/h 26% 0.00in /  0mm 0.0 W/m2
22:14 75.4 °F /  24.1 °C 38.1 °F /  3.4 °C 29.70in /  1005.6hPa SSW 6.0mph /  9.7km/h 6.0mph /  9.7km/h 26% 0.00in /  0mm 0.0 W/m2
22:20 75.6 °F /  24.2 °C 37.2 °F /  2.9 °C 29.71in /  1006hPa SSE 4.9mph /  7.9km/h 7.0mph /  11.3km/h 25% 0.00in /  0mm 0.0 W/m2
22:26 75.6 °F /  24.2 °C 37.2 °F /  2.9 °C 29.71in /  1006hPa SSE 2.9mph /  4.7km/h 5.0mph /  8km/h 25% 0.00in /  0mm 0.0 W/m2
22:31 75.6 °F /  24.2 °C 36.3 °F /  2.4 °C 29.71in /  1006hPa Calm   3.0mph /  4.8km/h 24% 0.00in /  0mm 0.0 W/m2
22:36 75.7 °F /  24.3 °C 36.3 °F /  2.4 °C 29.71in /  1006hPa SE 2.9mph /  4.7km/h 3.0mph /  4.8km/h 24% 0.00in /  0mm 0.0 W/m2
22:42 75.6 °F /  24.2 °C 35.2 °F /  1.8 °C 29.71in /  1006hPa Calm   5.0mph /  8km/h 23% 0.00in /  0mm 0.0 W/m2
22:47 75.6 °F /  24.2 °C 36.3 °F /  2.4 °C 29.71in /  1006hPa Calm   1.0mph /  1.6km/h 24% 0.00in /  0mm 0.0 W/m2
22:52 75.6 °F /  24.2 °C 37.2 °F /  2.9 °C 29.71in /  1006hPa Calm   2.0mph /  3.2km/h 25% 0.00in /  0mm 0.0 W/m2
22:57 75.4 °F /  24.1 °C 37.0 °F /  2.8 °C 29.71in /  1006hPa Calm   3.0mph /  4.8km/h 25% 0.00in /  0mm 0.0 W/m2
23:02 75.2 °F /  24 °C 34.9 °F /  1.6 °C 29.72in /  1006.3hPa WSW 2.0mph /  3.2km/h 5.0mph /  8km/h 23% 0.00in /  0mm 0.0 W/m2
23:07 75.4 °F /  24.1 °C 32.7 °F /  0.4 °C 29.72in /  1006.3hPa West 0.9mph /  1.4km/h 7.0mph /  11.3km/h 21% 0.00in /  0mm 0.0 W/m2
23:12 75.7 °F /  24.3 °C 31.8 °F /  -0.1 °C 29.71in /  1006hPa SW 2.0mph /  3.2km/h 9.0mph /  14.5km/h 20% 0.00in /  0mm 0.0 W/m2
23:17 75.9 °F /  24.4 °C 33.3 °F /  0.7 °C 29.72in /  1006.3hPa SSW 0.9mph /  1.4km/h 3.0mph /  4.8km/h 21% 0.00in /  0mm 0.0 W/m2
23:22 75.9 °F /  24.4 °C 33.3 °F /  0.7 °C 29.72in /  1006.3hPa SW 0.9mph /  1.4km/h 8.0mph /  12.9km/h 21% 0.00in /  0mm 0.0 W/m2
23:27 75.9 °F /  24.4 °C 32.0 °F /  0 °C 29.72in /  1006.3hPa WSW 2.0mph /  3.2km/h 6.0mph /  9.7km/h 20% 0.00in /  0mm 0.0 W/m2
23:32 75.9 °F /  24.4 °C 32.0 °F /  0 °C 29.71in /  1006hPa SW 2.9mph /  4.7km/h 4.0mph /  6.4km/h 20% 0.00in /  0mm 0.0 W/m2
23:38 75.9 °F /  24.4 °C 32.0 °F /  0 °C 29.71in /  1006hPa Calm   3.0mph /  4.8km/h 20% 0.00in /  0mm 0.0 W/m2
23:43 75.7 °F /  24.3 °C 33.1 °F /  0.6 °C 29.71in /  1006hPa WSW 0.9mph /  1.4km/h 3.0mph /  4.8km/h 21% 0.00in /  0mm 0.0 W/m2
23:48 75.6 °F /  24.2 °C 32.9 °F /  0.5 °C 29.71in /  1006hPa West 0.9mph /  1.4km/h 3.0mph /  4.8km/h 21% 0.00in /  0mm 0.0 W/m2
23:53 75.2 °F /  24 °C 33.8 °F /  1 °C 29.71in /  1006hPa WSW 0.9mph /  1.4km/h 1.0mph /  1.6km/h 22% 0.00in /  0mm 0.0 W/m2
23:58 74.7 °F /  23.7 °C 34.3 °F /  1.3 °C 29.71in /  1006hPa WSW 0.9mph /  1.4km/h 2.0mph /  3.2km/h 23% 0.00in /  0mm 0.0 W/m2
Olympia, Windhoek, Namibia
Compliments of Weather Underground - 3.25 mb